createdAt,value
2023-04-25T00:00:28.399Z,60.02
2023-04-25T00:05:52.952Z,60.24
2023-04-25T00:10:56.321Z,60.22
2023-04-25T00:16:01.395Z,60.41
2023-04-25T00:21:07.452Z,60.27
2023-04-25T00:26:10.756Z,60.48
2023-04-25T00:31:14.630Z,60.84
2023-04-25T00:36:18.518Z,61.01
2023-04-25T00:41:22.330Z,61.83
2023-04-25T00:46:25.677Z,61.54
2023-04-25T00:51:29.869Z,61.49
2023-04-25T00:56:33.181Z,61.84
2023-04-25T01:01:37.109Z,62.24
2023-04-25T01:06:41.749Z,62.08
2023-04-25T01:11:45.069Z,62.39
2023-04-25T01:16:49.371Z,62.40
2023-04-25T01:21:53.111Z,62.83
2023-04-25T01:27:01.475Z,63.08
2023-04-25T01:32:06.861Z,63.46
2023-04-25T01:37:10.218Z,63.24
2023-04-25T01:42:14.447Z,64.10
2023-04-25T01:47:17.962Z,63.73
2023-04-25T01:52:21.578Z,64.06
2023-04-25T01:57:25.206Z,64.30
2023-04-25T02:02:28.730Z,64.46
2023-04-25T02:07:33.664Z,64.20
2023-04-25T02:12:37.386Z,64.74
2023-04-25T02:17:40.807Z,64.73
2023-04-25T02:22:44.418Z,65.05
2023-04-25T02:27:48.863Z,65.24
2023-04-25T02:32:52.427Z,65.20
2023-04-25T02:37:55.990Z,65.56
2023-04-25T02:42:59.519Z,65.51
2023-04-25T02:48:04.321Z,65.12
2023-04-25T02:53:07.870Z,65.64
2023-04-25T02:58:11.589Z,66.04
2023-04-25T03:03:16.283Z,66.04
2023-04-25T03:08:20.254Z,66.31
2023-04-25T03:13:23.666Z,66.66
2023-04-25T03:18:27.083Z,66.73
2023-04-25T03:23:30.697Z,67.34
2023-04-25T03:28:34.213Z,67.78
2023-04-25T03:33:37.584Z,67.71
2023-04-25T03:38:42.586Z,67.72
2023-04-25T03:43:46.303Z,67.94
2023-04-25T03:48:49.821Z,68.02
2023-04-25T03:53:53.799Z,68.28
2023-04-25T03:58:57.062Z,68.71
2023-04-25T04:04:00.782Z,69.10
2023-04-25T04:09:04.699Z,69.24
2023-04-25T04:14:09.131Z,68.97
2023-04-25T04:19:12.474Z,70.20
2023-04-25T04:24:18.005Z,70.58
2023-04-25T04:29:24.308Z,71.07
2023-04-25T04:34:28.416Z,71.60
2023-04-25T04:39:32.044Z,72.02
2023-04-25T04:44:35.653Z,72.15
2023-04-25T04:49:39.062Z,71.70
2023-04-25T04:54:42.485Z,72.59
2023-04-25T04:59:46.306Z,72.74
2023-04-25T05:04:49.897Z,73.02
2023-04-25T05:09:53.564Z,73.39
2023-04-25T05:14:57.032Z,73.76
2023-04-25T05:20:00.584Z,74.27
2023-04-25T05:25:04.877Z,74.26
2023-04-25T05:30:10.163Z,74.80
2023-04-25T05:35:13.705Z,75.12
2023-04-25T05:40:17.136Z,75.36
2023-04-25T05:45:20.620Z,75.77
2023-04-25T05:50:23.937Z,76.63
2023-04-25T05:55:27.346Z,76.28
2023-04-25T06:00:30.908Z,77.20
2023-04-25T06:05:34.488Z,77.30
2023-04-25T06:10:38.795Z,77.18
2023-04-25T06:15:42.325Z,77.54
2023-04-25T06:20:45.830Z,77.68
2023-04-25T06:25:49.539Z,77.55
2023-04-25T06:30:52.954Z,77.43
2023-04-25T06:35:56.489Z,77.16
2023-04-25T06:40:59.994Z,77.52
2023-04-25T06:46:03.610Z,76.95
2023-04-25T06:51:07.121Z,77.23
2023-04-25T06:56:11.454Z,77.32
2023-04-25T07:01:15.566Z,77.19
2023-04-25T07:06:19.209Z,78.03
2023-04-25T07:11:22.735Z,78.47
2023-04-25T07:16:26.165Z,79.23
2023-04-25T07:21:29.862Z,80.25
2023-04-25T07:26:33.580Z,80.41
2023-04-25T07:31:37.526Z,80.31
2023-04-25T07:36:41.430Z,80.86
2023-04-25T07:41:44.865Z,80.90
2023-04-25T07:46:48.560Z,81.44
2023-04-25T07:51:52.180Z,81.42
2023-04-25T07:56:56.004Z,81.03
2023-04-25T08:01:59.419Z,81.09
2023-04-25T08:07:02.938Z,81.47
2023-04-25T08:12:06.757Z,81.46
2023-04-25T08:17:11.294Z,81.73
2023-04-25T08:22:15.814Z,82.60
2023-04-25T08:27:22.204Z,82.91
2023-04-25T08:32:25.647Z,82.97
2023-04-25T08:37:28.946Z,83.88
2023-04-25T08:42:34.353Z,84.03
2023-04-25T08:47:39.818Z,83.49
2023-04-25T08:52:50.799Z,83.73
2023-04-25T08:57:56.099Z,84.18
2023-04-25T09:03:00.826Z,84.13
2023-04-25T09:08:04.442Z,84.51
2023-04-25T09:13:07.898Z,84.64
2023-04-25T09:18:11.275Z,84.19
2023-04-25T09:23:16.499Z,84.44
2023-04-25T09:28:29.268Z,84.79
2023-04-25T09:33:38.337Z,84.57
2023-04-25T09:38:46.868Z,85.15
2023-04-25T09:43:51.614Z,85.00
2023-04-25T09:48:55.264Z,85.32
2023-04-25T09:53:58.841Z,85.62
2023-04-25T09:59:04.225Z,85.27
2023-04-25T10:04:12.391Z,84.77
2023-04-25T10:09:19.346Z,85.21
2023-04-25T10:14:23.655Z,85.04
2023-04-25T10:19:28.198Z,84.78
2023-04-25T10:24:32.942Z,84.74
2023-04-25T10:29:36.761Z,84.82
2023-04-25T10:34:44.167Z,84.95
2023-04-25T10:39:47.990Z,85.33
2023-04-25T10:45:06.912Z,85.27
2023-04-25T10:50:10.738Z,85.22
2023-04-25T10:55:14.354Z,85.37
2023-04-25T11:00:20.282Z,85.41
2023-04-25T11:05:33.161Z,85.89
2023-04-25T11:10:38.194Z,86.41
2023-04-25T11:15:41.797Z,86.94
2023-04-25T11:20:45.934Z,86.68
2023-04-25T11:25:51.072Z,86.80
2023-04-25T11:30:54.485Z,86.78
2023-04-25T11:35:58.105Z,86.86
2023-04-25T11:41:02.170Z,86.91
2023-04-25T11:46:09.520Z,86.77
2023-04-25T11:51:13.302Z,86.56
2023-04-25T11:56:16.781Z,86.63
2023-04-25T12:01:35.194Z,86.76
2023-04-25T12:06:43.577Z,86.20
2023-04-25T12:11:50.055Z,85.93
2023-04-25T12:16:54.102Z,85.19
2023-04-25T12:21:59.411Z,85.15
2023-04-25T12:27:04.442Z,84.76
2023-04-25T12:32:07.839Z,84.58
2023-04-25T12:37:11.664Z,84.19
2023-04-25T12:42:15.210Z,84.86
2023-04-25T12:47:18.699Z,84.18
2023-04-25T12:52:22.022Z,84.36
2023-04-25T12:57:25.826Z,83.27
2023-04-25T13:02:29.465Z,83.65
2023-04-25T13:07:34.148Z,82.82
2023-04-25T13:12:39.373Z,82.43
2023-04-25T13:17:43.697Z,82.02
2023-04-25T13:22:47.441Z,81.65
2023-04-25T13:27:50.989Z,81.84
2023-04-25T13:32:57.520Z,81.99
2023-04-25T13:38:01.988Z,81.86
2023-04-25T13:43:05.891Z,81.29
2023-04-25T13:48:09.636Z,81.51
2023-04-25T13:53:13.417Z,80.43
2023-04-25T13:58:17.003Z,80.06
2023-04-25T14:03:20.709Z,80.10
2023-04-25T14:08:24.228Z,79.19
2023-04-25T14:13:28.114Z,79.85
2023-04-25T14:18:31.352Z,79.99
2023-04-25T14:23:34.881Z,79.99
2023-04-25T14:28:38.387Z,79.70
2023-04-25T14:33:43.939Z,79.72
2023-04-25T14:38:47.921Z,79.62
2023-04-25T14:43:51.810Z,79.78
2023-04-25T14:48:57.189Z,80.21
2023-04-25T14:54:00.882Z,79.97
2023-04-25T14:59:04.498Z,80.27
2023-04-25T15:04:08.264Z,79.88
2023-04-25T15:09:26.331Z,80.12
2023-04-25T15:14:30.503Z,79.99
2023-04-25T15:19:34.026Z,80.24
2023-04-25T15:24:37.850Z,80.59
2023-04-25T15:29:41.562Z,80.87
2023-04-25T15:34:44.964Z,81.09
2023-04-25T15:39:48.522Z,81.12
2023-04-25T15:44:52.118Z,81.44
2023-04-25T15:49:55.853Z,81.89
2023-04-25T15:54:59.452Z,81.87
2023-04-25T16:00:17.433Z,81.82
2023-04-25T16:05:30.446Z,82.33
2023-04-25T16:10:33.940Z,82.23
2023-04-25T16:15:37.609Z,82.17
2023-04-25T16:20:41.296Z,82.37
2023-04-25T16:25:44.767Z,82.87
2023-04-25T16:30:48.224Z,82.94
2023-04-25T16:35:52.883Z,83.23
2023-04-25T16:40:57.097Z,83.21
2023-04-25T16:46:01.429Z,83.18
2023-04-25T16:51:05.605Z,83.06
2023-04-25T16:56:09.176Z,83.26
2023-04-25T17:01:16.362Z,83.37
2023-04-25T17:06:19.996Z,83.46
2023-04-25T17:11:28.332Z,83.70
2023-04-25T17:16:38.824Z,83.70
2023-04-25T17:21:42.739Z,83.99
2023-04-25T17:26:48.610Z,84.09
2023-04-25T17:31:53.817Z,84.30
2023-04-25T17:36:57.271Z,84.38
2023-04-25T17:42:01.163Z,84.21
2023-04-25T17:47:06.086Z,84.14
2023-04-25T17:52:11.311Z,84.53
2023-04-25T17:57:14.698Z,84.63
2023-04-25T18:02:18.523Z,84.63
2023-04-25T18:07:22.160Z,84.94
2023-04-25T18:12:27.927Z,85.50
2023-04-25T18:17:31.612Z,85.32
2023-04-25T18:22:36.290Z,85.53
2023-04-25T18:27:41.003Z,85.72
2023-04-25T18:32:44.912Z,85.99
2023-04-25T18:37:48.777Z,85.87
2023-04-25T18:42:52.404Z,85.93
2023-04-25T18:47:56.062Z,85.68
2023-04-25T18:53:00.764Z,85.42
2023-04-25T18:58:04.180Z,85.96
2023-04-25T19:03:08.046Z,86.01
2023-04-25T19:08:11.921Z,86.10
2023-04-25T19:13:15.331Z,86.09
2023-04-25T19:18:18.952Z,86.11
2023-04-25T19:23:25.697Z,86.42
2023-04-25T19:28:30.663Z,86.88
2023-04-25T19:33:34.055Z,86.90
2023-04-25T19:38:37.354Z,87.79
2023-04-25T19:43:40.752Z,88.09
2023-04-25T19:48:44.471Z,88.01
2023-04-25T19:53:47.849Z,88.26
2023-04-25T19:58:51.709Z,88.46
2023-04-25T20:03:56.342Z,88.78
2023-04-25T20:08:59.885Z,89.35
2023-04-25T20:14:05.732Z,89.02
2023-04-25T20:19:09.024Z,89.19
2023-04-25T20:24:12.336Z,89.42
2023-04-25T20:29:16.010Z,89.42
2023-04-25T20:34:21.836Z,89.97
2023-04-25T20:39:34.568Z,89.67
2023-04-25T20:44:40.988Z,89.85
2023-04-25T20:49:44.382Z,89.73
2023-04-25T20:54:54.395Z,89.91
2023-04-25T20:59:58.510Z,90.10
2023-04-25T21:05:06.977Z,90.10
2023-04-25T21:10:12.935Z,90.20
2023-04-25T21:15:28.617Z,90.14
2023-04-25T21:20:32.891Z,90.20
2023-04-25T21:25:59.985Z,89.85
2023-04-25T21:31:12.001Z,89.56
2023-04-25T21:36:41.740Z,89.75
2023-04-25T21:41:51.237Z,89.36
2023-04-25T21:47:16.085Z,89.73
2023-04-25T21:52:25.335Z,89.82
2023-04-25T21:57:29.933Z,89.75
2023-04-25T22:02:34.784Z,89.83
2023-04-25T22:08:04.377Z,90.00
2023-04-25T22:13:50.618Z,89.75
2023-04-25T22:19:26.030Z,89.33
2023-04-25T22:24:56.081Z,89.65
2023-04-25T22:30:59.474Z,89.39
2023-04-25T22:36:11.834Z,89.46
2023-04-25T22:41:22.218Z,89.20
2023-04-25T22:46:29.313Z,89.18
2023-04-25T22:51:34.206Z,89.13
2023-04-25T22:56:39.776Z,88.80
2023-04-25T23:01:50.448Z,88.89
2023-04-25T23:06:54.330Z,88.80
2023-04-25T23:11:59.289Z,88.53
2023-04-25T23:17:02.676Z,88.81
2023-04-25T23:22:06.301Z,89.06
2023-04-25T23:27:09.899Z,89.07
2023-04-25T23:32:13.874Z,89.24
2023-04-25T23:37:17.248Z,89.58
2023-04-25T23:42:20.753Z,89.96
2023-04-25T23:47:24.160Z,90.12
2023-04-25T23:52:28.634Z,90.28
2023-04-25T23:57:32.553Z,90.30
